Terminal Aerodrome Forecast
Issued by NWS Sioux Falls, SD

Home | Current Version | Previous Version | Graphics & Text | Print | Product List | Glossary On
Versions: 1 2 3 4 5 6 7 8 9 10 11 12 13 14 15 16 17 18 19 20
000
FTUS43 KFSD 260532
TAFHON
TAF
KHON 260532Z 2606/2706 35009KT P6SM OVC015
      TEMPO 2606/2609 OVC008
     FM260900 34018G27KT P6SM OVC009
     FM261400 34021G29KT P6SM BKN015
     FM261700 34019G27KT P6SM SCT015
     FM262200 35013G20KT P6SM BKN025
     FM270000 36006KT P6SM BKN025=

USA.gov is the U.S. government's official web portal to all federal, state and local government web resources and services.